Date,TemperatureHighF,TemperatureAvgF,TemperatureLowF,DewpointHighF,DewpointAvgF,DewpointLowF,HumidityHigh,HumidityAvg,HumidityLow,PressureMaxIn,PressureMinIn,WindSpeedMaxMPH,WindSpeedAvgMPH,GustSpeedMaxMPH,PrecipitationSumIn
2013-3-1,31.0,27.4,25.0,28.0,22.5,16.0,98,78,63,0.00,40.00,0,0,0,0.00
2013-3-2,29.0,24.6,21.0,23.0,19.9,14.0,90,79,59,0.00,40.00,0,0,0,19.74
2013-3-3,28.0,24.2,21.0,23.0,17.0,10.0,90,72,53,0.00,40.00,0,0,0,10.70
2013-3-4,39.0,28.8,19.0,21.0,15.1,10.0,82,56,31,0.00,40.00,8,2,10,0.00
2013-3-5,41.0,33.8,27.0,34.0,25.5,16.0,100,71,49,0.00,40.00,9,5,14,3.38
2013-3-6,36.0,32.0,27.0,32.0,28.0,25.0,100,83,66,0.00,40.00,2,0,14,0.00
2013-3-7,41.0,32.5,27.0,28.0,26.6,23.0,89,76,51,0.00,40.00,0,0,4,0.00
2013-3-8,44.0,34.5,26.0,30.0,24.4,19.0,84,65,42,0.00,40.00,0,0,0,0.00
2013-3-9,55.0,40.1,26.0,30.0,25.4,21.0,95,59,27,0.00,40.00,6,1,8,0.00
2013-3-10,68.0,58.1,48.0,30.0,26.9,23.0,42,30,18,0.00,40.00,5,2,10,0.00
2013-3-11,64.0,53.1,32.0,50.0,35.0,28.0,100,56,29,0.00,40.00,12,4,21,1.69
2013-3-12,38.0,33.5,28.0,32.0,28.0,23.0,97,78,63,0.00,40.00,10,5,21,0.00
2013-3-13,30.0,26.7,24.0,28.0,20.5,14.0,99,75,59,0.00,40.00,14,9,21,5.63
2013-3-14,38.0,29.4,21.0,21.0,17.2,12.0,78,59,38,0.00,40.00,13,6,21,0.00
2013-3-15,51.0,39.0,30.0,43.0,26.6,14.0,97,60,47,0.00,40.00,9,3,15,3.94
2013-3-16,52.0,40.3,30.0,45.0,35.4,27.0,100,85,67,0.00,40.00,12,4,17,0.55
2013-3-17,37.0,31.8,28.0,30.0,26.1,23.0,90,76,60,0.00,40.00,9,4,17,0.00
2013-3-18,43.0,34.9,28.0,41.0,32.5,23.0,100,92,68,0.00,40.00,15,6,19,1.69
2013-3-19,68.0,32.2,28.0,43.0,19.9,9.0,95,59,31,0.00,40.00,20,11,24,0.00
2013-3-20,37.0,30.2,21.0,18.0,14.7,10.0,62,50,34,0.00,40.00,17,8,24,0.00
2013-3-21,29.0,22.6,16.0,19.0,12.8,7.0,90,64,47,0.00,40.00,12,6,24,0.55
2013-3-22,41.0,29.9,20.0,19.0,15.6,12.0,78,55,32,0.00,40.00,11,4,15,0.00
2013-3-23,47.0,36.3,25.0,23.0,17.1,14.0,64,45,25,0.00,40.00,7,1,14,0.00
2013-3-24,36.0,31.8,28.0,32.0,23.0,16.0,100,69,45,0.00,40.00,11,6,14,0.00
2013-3-25,27.0,25.8,23.0,27.0,24.8,21.0,100,93,89,0.00,40.00,0,0,1,2.83
2013-3-26,34.0,29.9,23.0,28.0,24.4,18.0,99,77,53,0.00,40.00,0,0,0,0.55
2013-3-27,39.0,33.7,28.0,30.0,24.7,19.0,94,69,46,0.00,40.00,0,0,0,0.00
2013-3-28,46.0,37.1,27.0,27.0,22.6,19.0,78,55,37,0.00,40.00,0,0,0,0.00
2013-3-29,52.0,41.3,29.0,32.0,26.1,21.0,80,55,34,0.00,40.00,0,0,0,0.00
2013-3-30,58.0,45.1,30.0,28.0,23.3,16.0,80,44,20,0.00,40.00,0,0,0,0.00
2013-3-31,51.0,46.5,41.0,45.0,34.8,-99.9,98,70,37,0.00,40.00,0,0,0,0.55